createdAt,value
2023-05-21T04:00:30.357Z,244.00
2023-05-21T04:05:30.278Z,316.00
2023-05-21T04:10:30.261Z,384.00
2023-05-21T04:15:37.468Z,444.00
2023-05-21T04:20:30.117Z,516.00
2023-05-21T04:25:30.050Z,620.00
2023-05-21T04:30:30.004Z,760.00
2023-05-21T04:35:29.991Z,900.00
2023-05-21T04:40:29.881Z,1012.00
2023-05-21T04:45:29.865Z,1104.00
2023-05-21T04:50:29.790Z,1180.00
2023-05-21T04:55:29.764Z,1256.00
2023-05-21T05:00:29.686Z,1352.00
2023-05-21T05:05:29.639Z,1480.00
2023-05-21T05:10:29.568Z,1636.00
2023-05-21T05:15:29.551Z,1840.00
2023-05-21T05:20:29.451Z,2080.00
2023-05-21T05:25:29.407Z,2316.00
2023-05-21T05:30:29.343Z,2592.00
2023-05-21T05:35:29.306Z,2904.00
2023-05-21T05:40:29.242Z,3208.00
2023-05-21T05:45:29.178Z,3468.00
2023-05-21T05:50:29.125Z,3588.00
2023-05-21T05:55:29.074Z,3608.00
2023-05-21T06:00:29.024Z,3772.00
2023-05-21T06:05:28.973Z,4008.00
2023-05-21T06:10:28.907Z,4116.00
2023-05-21T06:15:28.869Z,4576.00
2023-05-21T06:20:28.865Z,5864.00
2023-05-21T06:25:28.741Z,7928.00
2023-05-21T06:30:28.776Z,9744.00
2023-05-21T06:35:28.669Z,9172.00
2023-05-21T06:40:28.569Z,8508.00
2023-05-21T06:45:28.563Z,9608.00
2023-05-21T06:50:28.516Z,10400.00
2023-05-21T06:55:28.438Z,9532.00
2023-05-21T07:00:28.372Z,9780.00
2023-05-21T07:05:28.312Z,14072.00
2023-05-21T07:10:28.242Z,11116.00
2023-05-21T07:15:28.231Z,18016.00
2023-05-21T07:20:28.134Z,17216.00
2023-05-21T07:25:28.091Z,18912.00
2023-05-21T07:30:28.033Z,16416.00
2023-05-21T07:35:28.002Z,16096.00
2023-05-21T07:40:27.930Z,13512.00
2023-05-21T07:45:27.877Z,13256.00
2023-05-21T07:50:27.839Z,12900.00
2023-05-21T07:55:27.804Z,11692.00
2023-05-21T08:00:27.704Z,11404.00
2023-05-21T08:05:27.661Z,11024.00
2023-05-21T08:10:27.631Z,11168.00
2023-05-21T08:15:27.562Z,11388.00
2023-05-21T08:20:27.510Z,10584.00
2023-05-21T08:25:27.437Z,11152.00
2023-05-21T08:30:27.402Z,12352.00
2023-05-21T08:35:27.373Z,14052.00
2023-05-21T08:40:27.278Z,14224.00
2023-05-21T08:45:27.241Z,13116.00
2023-05-21T08:50:27.179Z,11596.00
2023-05-21T08:55:27.141Z,11116.00
2023-05-21T09:00:27.075Z,10960.00
2023-05-21T09:05:27.021Z,10840.00
2023-05-21T09:10:27.012Z,9816.00
2023-05-21T09:15:26.955Z,10976.00
2023-05-21T09:20:26.862Z,10808.00
2023-05-21T09:25:26.806Z,11736.00
2023-05-21T09:30:30.053Z,11140.00
2023-05-21T09:35:26.717Z,11472.00
2023-05-21T09:40:26.650Z,9696.00
2023-05-21T09:45:26.594Z,9776.00
2023-05-21T09:50:26.536Z,11040.00
2023-05-21T09:55:26.501Z,11560.00
2023-05-21T10:00:26.431Z,11828.00
2023-05-21T10:05:26.378Z,11136.00
2023-05-21T10:10:26.347Z,10720.00
2023-05-21T10:15:33.384Z,11376.00
2023-05-21T10:20:26.241Z,11908.00
2023-05-21T10:25:26.190Z,11692.00
2023-05-21T10:30:26.116Z,11136.00
2023-05-21T10:35:26.196Z,10132.00
2023-05-21T10:40:26.011Z,10768.00
2023-05-21T10:45:25.987Z,10156.00
2023-05-21T10:50:25.898Z,9316.00
2023-05-21T10:55:25.897Z,8652.00
2023-05-21T11:00:25.820Z,8696.00
2023-05-21T11:05:25.738Z,8984.00
2023-05-21T11:10:25.711Z,8724.00
2023-05-21T11:15:25.668Z,8740.00
2023-05-21T11:20:25.581Z,9948.00
2023-05-21T11:25:25.531Z,10256.00
2023-05-21T11:30:25.491Z,10688.00
2023-05-21T11:35:25.446Z,10628.00
2023-05-21T11:40:25.373Z,10332.00
2023-05-21T11:45:25.349Z,10676.00
2023-05-21T11:50:25.270Z,10592.00
2023-05-21T11:55:25.272Z,9548.00
2023-05-21T12:00:25.159Z,9584.00
2023-05-21T12:05:25.138Z,8604.00
2023-05-21T12:10:25.050Z,8944.00
2023-05-21T12:15:25.126Z,9724.00
2023-05-21T12:20:24.946Z,10452.00
2023-05-21T12:25:24.918Z,8752.00
2023-05-21T12:30:24.847Z,8376.00
2023-05-21T12:35:25.038Z,8608.00
2023-05-21T12:40:24.736Z,9264.00
2023-05-21T12:45:24.705Z,9040.00
2023-05-21T12:50:24.659Z,8744.00
2023-05-21T12:55:24.605Z,8544.00
2023-05-21T13:00:24.520Z,7832.00
2023-05-21T13:05:24.472Z,7340.00
2023-05-21T13:10:24.421Z,6716.00
2023-05-21T13:15:24.386Z,6536.00
2023-05-21T13:20:24.317Z,7248.00
2023-05-21T13:25:24.276Z,7208.00
2023-05-21T13:30:24.219Z,7220.00
2023-05-21T13:35:24.190Z,7428.00
2023-05-21T13:40:24.117Z,7240.00
2023-05-21T13:45:24.050Z,7016.00
2023-05-21T13:50:24.000Z,6832.00
2023-05-21T13:55:23.978Z,6212.00
2023-05-21T14:00:23.946Z,5932.00
2023-05-21T14:05:23.857Z,5552.00
2023-05-21T14:10:23.813Z,5916.00
2023-05-21T14:15:23.754Z,6568.00
2023-05-21T14:20:23.694Z,6788.00
2023-05-21T14:25:23.658Z,6348.00
2023-05-21T14:30:23.565Z,5500.00
2023-05-21T14:35:23.540Z,5184.00
2023-05-21T14:40:23.492Z,5672.00
2023-05-21T14:45:23.418Z,6504.00
2023-05-21T14:50:23.378Z,6740.00
2023-05-21T14:55:23.344Z,6772.00
2023-05-21T15:00:23.278Z,6880.00
2023-05-21T15:05:23.191Z,6700.00
2023-05-21T15:10:23.140Z,6544.00
2023-05-21T15:15:23.110Z,6484.00
2023-05-21T15:20:23.346Z,5992.00
2023-05-21T15:25:23.014Z,4748.00
2023-05-21T15:30:22.966Z,5800.00
2023-05-21T15:35:23.074Z,5668.00
2023-05-21T15:40:23.952Z,5620.00
2023-05-21T15:45:22.786Z,5620.00
2023-05-21T15:50:22.756Z,5580.00
2023-05-21T15:55:22.730Z,5488.00
2023-05-21T16:00:22.634Z,5348.00
2023-05-21T16:05:22.574Z,5088.00
2023-05-21T16:10:22.501Z,4988.00
2023-05-21T16:15:22.489Z,4996.00
2023-05-21T16:20:22.393Z,4912.00
2023-05-21T16:25:22.380Z,4904.00
2023-05-21T16:30:22.409Z,4944.00
2023-05-21T16:35:22.256Z,5276.00
2023-05-21T16:40:22.225Z,5372.00
2023-05-21T16:45:22.146Z,5404.00
2023-05-21T16:50:22.189Z,4912.00
2023-05-21T16:55:22.052Z,3996.00
2023-05-21T17:00:21.982Z,2604.00
2023-05-21T17:05:21.953Z,1932.00
2023-05-21T17:10:21.892Z,1716.00
2023-05-21T17:15:21.856Z,1440.00
2023-05-21T17:20:21.788Z,1412.00
2023-05-21T17:25:21.717Z,1460.00
2023-05-21T17:30:22.234Z,1372.00
2023-05-21T17:35:21.615Z,976.00
2023-05-21T17:40:21.549Z,740.00
2023-05-21T17:45:21.523Z,500.00
2023-05-21T17:50:21.457Z,356.00
2023-05-21T17:55:21.464Z,268.00
2023-05-21T18:00:21.358Z,240.00
2023-05-21T18:05:21.302Z,264.00
2023-05-21T18:10:21.266Z,304.00
2023-05-21T18:15:21.182Z,360.00
2023-05-21T18:20:21.119Z,424.00
2023-05-21T18:25:21.066Z,488.00
2023-05-21T18:30:21.059Z,516.00
2023-05-21T18:35:20.992Z,488.00
2023-05-21T18:40:20.920Z,416.00
2023-05-21T18:45:20.843Z,304.00
2023-05-21T18:50:20.776Z,232.00
2023-05-21T18:55:20.747Z,148.00
2023-05-21T19:00:20.665Z,112.00
2023-05-21T19:05:20.676Z,72.00
2023-05-21T19:10:20.546Z,52.00
2023-05-21T19:15:20.541Z,36.00
2023-05-21T19:20:20.462Z,24.00
2023-05-21T19:25:20.398Z,16.00
2023-05-21T19:30:20.358Z,8.00
2023-05-21T19:35:20.306Z,8.00
2023-05-21T19:40:20.712Z,4.00
2023-05-21T19:45:20.163Z,4.00
2023-05-21T19:50:20.118Z,0.00
2023-05-21T19:55:20.124Z,0.00
2023-05-21T20:00:20.039Z,0.00
2023-05-21T20:05:20.058Z,0.00
2023-05-21T20:10:19.928Z,0.00
2023-05-21T20:15:19.864Z,0.00
2023-05-21T20:20:19.787Z,0.00
2023-05-21T20:25:19.732Z,0.00
2023-05-21T20:30:19.691Z,0.00
2023-05-21T20:35:19.628Z,0.00
2023-05-21T20:40:19.566Z,0.00
2023-05-21T20:45:19.515Z,0.00
2023-05-21T20:50:19.492Z,0.00
2023-05-21T20:55:19.419Z,0.00
2023-05-21T21:00:19.379Z,0.00
2023-05-21T21:05:19.288Z,0.00
2023-05-21T21:10:19.234Z,0.00
2023-05-21T21:15:19.287Z,0.00
2023-05-21T21:20:19.125Z,0.00
2023-05-21T21:25:19.099Z,0.00
2023-05-21T21:30:19.045Z,0.00
2023-05-21T21:35:18.993Z,0.00
2023-05-21T21:40:18.923Z,0.00
2023-05-21T21:45:19.287Z,0.00
2023-05-21T21:50:18.785Z,0.00
2023-05-21T21:55:18.773Z,0.00
2023-05-21T22:00:18.694Z,0.00
2023-05-21T22:05:18.624Z,0.00
2023-05-21T22:10:18.578Z,0.00
2023-05-21T22:15:25.753Z,0.00
2023-05-21T22:20:18.470Z,0.00
2023-05-21T22:25:18.435Z,0.00
2023-05-21T22:30:18.415Z,0.00
2023-05-21T22:35:18.411Z,0.00
2023-05-21T22:40:18.253Z,0.00
2023-05-21T22:45:18.198Z,0.00
2023-05-21T22:50:18.231Z,0.00
2023-05-21T22:55:18.251Z,0.00
2023-05-21T23:00:18.045Z,0.00
2023-05-21T23:05:18.029Z,0.00
2023-05-21T23:10:17.927Z,0.00
2023-05-21T23:15:17.895Z,0.00
2023-05-21T23:20:17.834Z,0.00
2023-05-21T23:25:17.783Z,0.00
